sensor_id;sensor_type;location;lat;lon;timestamp;temperature;humidity
2945;DHT22;1482;51.398;7.128;2023-05-02T00:00:29;12.60;48.50
2945;DHT22;1482;51.398;7.128;2023-05-02T00:02:55;12.50;49.70
2945;DHT22;1482;51.398;7.128;2023-05-02T00:05:21;12.50;52.60
2945;DHT22;1482;51.398;7.128;2023-05-02T00:07:46;12.40;57.30
2945;DHT22;1482;51.398;7.128;2023-05-02T00:10:12;12.30;62.10
2945;DHT22;1482;51.398;7.128;2023-05-02T00:12:38;12.30;62.90
2945;DHT22;1482;51.398;7.128;2023-05-02T00:15:04;12.20;68.20
2945;DHT22;1482;51.398;7.128;2023-05-02T00:17:30;12.20;74.90
2945;DHT22;1482;51.398;7.128;2023-05-02T00:19:56;12.10;79.90
2945;DHT22;1482;51.398;7.128;2023-05-02T00:22:21;12.00;90.70
2945;DHT22;1482;51.398;7.128;2023-05-02T00:24:47;12.00;99.90
2945;DHT22;1482;51.398;7.128;2023-05-02T00:27:12;11.90;99.90
2945;DHT22;1482;51.398;7.128;2023-05-02T00:29:39;11.90;99.90
2945;DHT22;1482;51.398;7.128;2023-05-02T00:32:05;11.90;99.90
2945;DHT22;1482;51.398;7.128;2023-05-02T00:34:31;11.90;99.90
2945;DHT22;1482;51.398;7.128;2023-05-02T00:36:57;11.90;99.90
2945;DHT22;1482;51.398;7.128;2023-05-02T00:39:23;11.90;99.90
2945;DHT22;1482;51.398;7.128;2023-05-02T00:41:48;11.90;99.90
2945;DHT22;1482;51.398;7.128;2023-05-02T00:44:14;12.00;99.90
2945;DHT22;1482;51.398;7.128;2023-05-02T00:46:40;12.00;99.90
2945;DHT22;1482;51.398;7.128;2023-05-02T00:49:06;12.00;99.90
2945;DHT22;1482;51.398;7.128;2023-05-02T00:51:32;12.00;99.90
2945;DHT22;1482;51.398;7.128;2023-05-02T00:53:59;12.00;99.90
2945;DHT22;1482;51.398;7.128;2023-05-02T00:56:26;12.00;99.90
2945;DHT22;1482;51.398;7.128;2023-05-02T00:58:52;12.10;99.90
2945;DHT22;1482;51.398;7.128;2023-05-02T01:04:25;12.10;99.90
2945;DHT22;1482;51.398;7.128;2023-05-02T01:12:09;12.10;99.90
2945;DHT22;1482;51.398;7.128;2023-05-02T01:14:40;12.20;99.90
2945;DHT22;1482;51.398;7.128;2023-05-02T01:17:10;12.20;99.90
2945;DHT22;1482;51.398;7.128;2023-05-02T01:19:39;12.20;99.90
2945;DHT22;1482;51.398;7.128;2023-05-02T01:22:08;12.30;99.90
2945;DHT22;1482;51.398;7.128;2023-05-02T01:30:02;12.30;99.90
2945;DHT22;1482;51.398;7.128;2023-05-02T01:32:30;12.30;99.90
2945;DHT22;1482;51.398;7.128;2023-05-02T01:34:57;12.30;99.90
2945;DHT22;1482;51.398;7.128;2023-05-02T01:37:26;12.30;99.90
2945;DHT22;1482;51.398;7.128;2023-05-02T01:39:54;12.30;99.90
2945;DHT22;1482;51.398;7.128;2023-05-02T01:42:22;12.30;99.90
2945;DHT22;1482;51.398;7.128;2023-05-02T01:44:49;12.30;99.90
2945;DHT22;1482;51.398;7.128;2023-05-02T01:47:16;12.30;99.90
2945;DHT22;1482;51.398;7.128;2023-05-02T01:49:43;12.20;99.90
2945;DHT22;1482;51.398;7.128;2023-05-02T01:52:11;12.20;99.90
2945;DHT22;1482;51.398;7.128;2023-05-02T01:54:37;12.20;99.90
2945;DHT22;1482;51.398;7.128;2023-05-02T01:57:06;12.20;99.90
2945;DHT22;1482;51.398;7.128;2023-05-02T01:59:34;12.10;99.90
2945;DHT22;1482;51.398;7.128;2023-05-02T02:02:01;12.10;99.90
2945;DHT22;1482;51.398;7.128;2023-05-02T02:04:29;11.90;99.90
2945;DHT22;1482;51.398;7.128;2023-05-02T02:07:00;11.90;99.90
2945;DHT22;1482;51.398;7.128;2023-05-02T02:09:26;11.80;99.90
2945;DHT22;1482;51.398;7.128;2023-05-02T02:11:57;11.70;99.90
2945;DHT22;1482;51.398;7.128;2023-05-02T02:14:32;11.70;99.90
2945;DHT22;1482;51.398;7.128;2023-05-02T02:17:00;11.60;99.90
2945;DHT22;1482;51.398;7.128;2023-05-02T02:19:28;11.60;99.90
2945;DHT22;1482;51.398;7.128;2023-05-02T02:21:57;11.60;99.90
2945;DHT22;1482;51.398;7.128;2023-05-02T02:24:23;11.60;99.90
2945;DHT22;1482;51.398;7.128;2023-05-02T02:26:50;11.70;99.90
2945;DHT22;1482;51.398;7.128;2023-05-02T02:29:15;11.60;99.90
2945;DHT22;1482;51.398;7.128;2023-05-02T02:31:41;11.70;99.90
2945;DHT22;1482;51.398;7.128;2023-05-02T02:34:07;11.70;99.90
2945;DHT22;1482;51.398;7.128;2023-05-02T02:36:54;11.70;99.90
2945;DHT22;1482;51.398;7.128;2023-05-02T02:39:29;11.70;99.90
2945;DHT22;1482;51.398;7.128;2023-05-02T02:42:10;11.70;99.90
2945;DHT22;1482;51.398;7.128;2023-05-02T02:45:04;11.70;99.90
2945;DHT22;1482;51.398;7.128;2023-05-02T02:50:26;11.70;99.90
2945;DHT22;1482;51.398;7.128;2023-05-02T02:53:04;11.70;99.90
2945;DHT22;1482;51.398;7.128;2023-05-02T02:55:39;11.70;99.90
2945;DHT22;1482;51.398;7.128;2023-05-02T02:58:27;11.80;99.90
2945;DHT22;1482;51.398;7.128;2023-05-02T03:00:56;11.70;99.90
2945;DHT22;1482;51.398;7.128;2023-05-02T03:03:25;11.80;99.90
2945;DHT22;1482;51.398;7.128;2023-05-02T03:05:54;11.70;99.90
2945;DHT22;1482;51.398;7.128;2023-05-02T03:08:21;11.80;99.90
2945;DHT22;1482;51.398;7.128;2023-05-02T03:10:46;11.80;99.90
2945;DHT22;1482;51.398;7.128;2023-05-02T03:13:12;11.80;99.90
2945;DHT22;1482;51.398;7.128;2023-05-02T03:18:09;11.80;99.90
2945;DHT22;1482;51.398;7.128;2023-05-02T03:20:35;11.70;99.90
2945;DHT22;1482;51.398;7.128;2023-05-02T03:23:00;11.80;99.90
2945;DHT22;1482;51.398;7.128;2023-05-02T03:25:26;11.70;99.90
2945;DHT22;1482;51.398;7.128;2023-05-02T03:27:51;11.70;99.90
2945;DHT22;1482;51.398;7.128;2023-05-02T03:30:17;11.60;99.90
2945;DHT22;1482;51.398;7.128;2023-05-02T03:32:42;11.60;99.90
2945;DHT22;1482;51.398;7.128;2023-05-02T03:35:08;11.60;99.90
2945;DHT22;1482;51.398;7.128;2023-05-02T03:37:34;11.50;99.90
2945;DHT22;1482;51.398;7.128;2023-05-02T03:39:59;11.50;99.90
2945;DHT22;1482;51.398;7.128;2023-05-02T03:42:25;11.50;99.90
2945;DHT22;1482;51.398;7.128;2023-05-02T03:44:53;11.50;99.90
2945;DHT22;1482;51.398;7.128;2023-05-02T03:47:19;11.50;99.90
2945;DHT22;1482;51.398;7.128;2023-05-02T03:49:45;11.50;99.90
2945;DHT22;1482;51.398;7.128;2023-05-02T03:52:11;11.50;99.90
2945;DHT22;1482;51.398;7.128;2023-05-02T03:54:36;11.50;99.90
2945;DHT22;1482;51.398;7.128;2023-05-02T03:57:02;11.50;99.90
2945;DHT22;1482;51.398;7.128;2023-05-02T03:59:32;11.60;99.90
2945;DHT22;1482;51.398;7.128;2023-05-02T04:01:58;11.60;99.90
2945;DHT22;1482;51.398;7.128;2023-05-02T04:04:24;11.70;99.90
2945;DHT22;1482;51.398;7.128;2023-05-02T04:06:49;11.80;99.90
2945;DHT22;1482;51.398;7.128;2023-05-02T04:09:15;11.80;99.90
2945;DHT22;1482;51.398;7.128;2023-05-02T04:11:41;11.80;99.90
2945;DHT22;1482;51.398;7.128;2023-05-02T04:14:06;11.80;99.90
2945;DHT22;1482;51.398;7.128;2023-05-02T04:16:32;11.90;99.90
2945;DHT22;1482;51.398;7.128;2023-05-02T04:18:58;11.90;99.90
2945;DHT22;1482;51.398;7.128;2023-05-02T04:21:23;11.90;99.90
2945;DHT22;1482;51.398;7.128;2023-05-02T04:23:49;11.90;99.90
2945;DHT22;1482;51.398;7.128;2023-05-02T04:26:14;11.90;99.90
2945;DHT22;1482;51.398;7.128;2023-05-02T04:28:41;11.90;99.90
2945;DHT22;1482;51.398;7.128;2023-05-02T04:31:06;12.00;99.90
2945;DHT22;1482;51.398;7.128;2023-05-02T04:33:32;12.00;99.90
2945;DHT22;1482;51.398;7.128;2023-05-02T04:35:57;11.90;99.90
2945;DHT22;1482;51.398;7.128;2023-05-02T04:38:23;11.90;99.90
2945;DHT22;1482;51.398;7.128;2023-05-02T04:40:51;11.80;99.90
2945;DHT22;1482;51.398;7.128;2023-05-02T04:43:17;11.90;99.90
2945;DHT22;1482;51.398;7.128;2023-05-02T04:45:43;11.80;99.90
2945;DHT22;1482;51.398;7.128;2023-05-02T04:48:08;11.90;99.90
2945;DHT22;1482;51.398;7.128;2023-05-02T04:50:34;11.80;99.90
2945;DHT22;1482;51.398;7.128;2023-05-02T04:52:59;11.90;99.90
2945;DHT22;1482;51.398;7.128;2023-05-02T04:55:25;11.90;99.90
2945;DHT22;1482;51.398;7.128;2023-05-02T04:57:51;11.80;99.90
2945;DHT22;1482;51.398;7.128;2023-05-02T05:00:16;11.80;99.90
2945;DHT22;1482;51.398;7.128;2023-05-02T05:02:42;11.90;99.90
2945;DHT22;1482;51.398;7.128;2023-05-02T05:05:08;11.90;99.90
2945;DHT22;1482;51.398;7.128;2023-05-02T05:07:33;11.80;99.90
2945;DHT22;1482;51.398;7.128;2023-05-02T05:09:59;11.80;99.90
2945;DHT22;1482;51.398;7.128;2023-05-02T05:12:24;11.90;99.90
2945;DHT22;1482;51.398;7.128;2023-05-02T05:14:50;11.80;1.00
2945;DHT22;1482;51.398;7.128;2023-05-02T05:17:15;11.80;1.00
2945;DHT22;1482;51.398;7.128;2023-05-02T05:19:41;11.70;1.00
2945;DHT22;1482;51.398;7.128;2023-05-02T05:22:07;11.70;1.00
2945;DHT22;1482;51.398;7.128;2023-05-02T05:24:33;11.70;1.00
2945;DHT22;1482;51.398;7.128;2023-05-02T05:26:58;11.60;1.00
2945;DHT22;1482;51.398;7.128;2023-05-02T05:29:24;11.70;22.80
2945;DHT22;1482;51.398;7.128;2023-05-02T05:31:49;11.70;27.60
2945;DHT22;1482;51.398;7.128;2023-05-02T05:34:15;11.60;1.00
2945;DHT22;1482;51.398;7.128;2023-05-02T05:36:41;11.50;48.20
2945;DHT22;1482;51.398;7.128;2023-05-02T05:39:07;11.40;99.90
2945;DHT22;1482;51.398;7.128;2023-05-02T05:41:32;11.50;99.90
2945;DHT22;1482;51.398;7.128;2023-05-02T05:43:59;11.50;99.90
2945;DHT22;1482;51.398;7.128;2023-05-02T05:46:25;11.40;99.90
2945;DHT22;1482;51.398;7.128;2023-05-02T05:48:50;11.40;99.90
2945;DHT22;1482;51.398;7.128;2023-05-02T05:51:16;11.30;99.90
2945;DHT22;1482;51.398;7.128;2023-05-02T05:53:41;11.40;1.00
2945;DHT22;1482;51.398;7.128;2023-05-02T05:56:08;11.40;1.00
2945;DHT22;1482;51.398;7.128;2023-05-02T05:58:34;11.30;99.90
2945;DHT22;1482;51.398;7.128;2023-05-02T06:01:00;11.30;99.90
2945;DHT22;1482;51.398;7.128;2023-05-02T06:03:25;11.30;99.90
2945;DHT22;1482;51.398;7.128;2023-05-02T06:05:51;11.10;99.50
2945;DHT22;1482;51.398;7.128;2023-05-02T06:08:16;11.20;1.00
2945;DHT22;1482;51.398;7.128;2023-05-02T06:10:42;11.30;1.00
2945;DHT22;1482;51.398;7.128;2023-05-02T06:13:07;11.40;1.00
2945;DHT22;1482;51.398;7.128;2023-05-02T06:15:33;11.50;1.00
2945;DHT22;1482;51.398;7.128;2023-05-02T06:17:59;11.50;1.00
2945;DHT22;1482;51.398;7.128;2023-05-02T06:20:25;11.60;1.00
2945;DHT22;1482;51.398;7.128;2023-05-02T06:22:51;11.40;99.90
2945;DHT22;1482;51.398;7.128;2023-05-02T06:25:16;11.40;99.90
2945;DHT22;1482;51.398;7.128;2023-05-02T06:27:42;11.40;99.90
2945;DHT22;1482;51.398;7.128;2023-05-02T06:30:08;11.50;99.90
2945;DHT22;1482;51.398;7.128;2023-05-02T06:32:33;11.50;99.90
2945;DHT22;1482;51.398;7.128;2023-05-02T06:34:59;11.50;99.90
2945;DHT22;1482;51.398;7.128;2023-05-02T06:37:24;11.60;99.90
2945;DHT22;1482;51.398;7.128;2023-05-02T06:39:50;11.60;99.90
2945;DHT22;1482;51.398;7.128;2023-05-02T06:42:15;11.80;99.90
2945;DHT22;1482;51.398;7.128;2023-05-02T06:44:41;11.90;99.90
2945;DHT22;1482;51.398;7.128;2023-05-02T06:47:06;11.90;99.90
2945;DHT22;1482;51.398;7.128;2023-05-02T06:49:32;12.00;99.90
2945;DHT22;1482;51.398;7.128;2023-05-02T06:51:58;12.00;99.90
2945;DHT22;1482;51.398;7.128;2023-05-02T06:54:24;12.20;99.90
2945;DHT22;1482;51.398;7.128;2023-05-02T06:56:50;12.30;99.90
2945;DHT22;1482;51.398;7.128;2023-05-02T06:59:16;12.40;99.90
2945;DHT22;1482;51.398;7.128;2023-05-02T07:01:43;12.50;99.90
2945;DHT22;1482;51.398;7.128;2023-05-02T07:04:08;12.50;97.80
2945;DHT22;1482;51.398;7.128;2023-05-02T07:06:34;12.60;66.00
2945;DHT22;1482;51.398;7.128;2023-05-02T07:08:59;12.70;49.60
2945;DHT22;1482;51.398;7.128;2023-05-02T07:11:25;12.90;39.30
2945;DHT22;1482;51.398;7.128;2023-05-02T07:13:52;12.90;27.00
2945;DHT22;1482;51.398;7.128;2023-05-02T07:16:18;13.00;13.80
2945;DHT22;1482;51.398;7.128;2023-05-02T07:18:44;13.00;1.80
2945;DHT22;1482;51.398;7.128;2023-05-02T07:21:12;12.90;1.00
2945;DHT22;1482;51.398;7.128;2023-05-02T07:23:38;13.00;1.10
2945;DHT22;1482;51.398;7.128;2023-05-02T07:26:04;12.90;1.00
2945;DHT22;1482;51.398;7.128;2023-05-02T07:28:30;13.00;1.00
2945;DHT22;1482;51.398;7.128;2023-05-02T07:30:55;12.90;1.00
2945;DHT22;1482;51.398;7.128;2023-05-02T07:33:21;12.90;1.00
2945;DHT22;1482;51.398;7.128;2023-05-02T07:35:48;12.80;1.00
2945;DHT22;1482;51.398;7.128;2023-05-02T07:38:13;12.80;1.00
2945;DHT22;1482;51.398;7.128;2023-05-02T07:40:39;12.60;1.00
2945;DHT22;1482;51.398;7.128;2023-05-02T07:43:05;12.60;1.00
2945;DHT22;1482;51.398;7.128;2023-05-02T07:45:31;12.40;1.00
2945;DHT22;1482;51.398;7.128;2023-05-02T07:47:56;12.30;1.00
2945;DHT22;1482;51.398;7.128;2023-05-02T07:50:22;12.10;2.60
2945;DHT22;1482;51.398;7.128;2023-05-02T07:52:48;12.00;16.80
2945;DHT22;1482;51.398;7.128;2023-05-02T07:55:14;11.90;29.70
2945;DHT22;1482;51.398;7.128;2023-05-02T07:57:39;11.80;46.10
2945;DHT22;1482;51.398;7.128;2023-05-02T08:00:06;11.60;74.90
2945;DHT22;1482;51.398;7.128;2023-05-02T08:02:37;11.50;94.70
2945;DHT22;1482;51.398;7.128;2023-05-02T08:05:03;11.30;99.90
2945;DHT22;1482;51.398;7.128;2023-05-02T08:07:30;11.30;99.90
2945;DHT22;1482;51.398;7.128;2023-05-02T08:09:56;11.20;99.90
2945;DHT22;1482;51.398;7.128;2023-05-02T08:12:21;11.10;99.90
2945;DHT22;1482;51.398;7.128;2023-05-02T08:14:47;10.90;96.30
2945;DHT22;1482;51.398;7.128;2023-05-02T08:17:12;10.80;99.90
2945;DHT22;1482;51.398;7.128;2023-05-02T08:19:38;10.80;99.90
2945;DHT22;1482;51.398;7.128;2023-05-02T08:22:03;10.90;99.90
2945;DHT22;1482;51.398;7.128;2023-05-02T08:24:29;11.00;99.90
2945;DHT22;1482;51.398;7.128;2023-05-02T08:26:55;11.10;99.90
2945;DHT22;1482;51.398;7.128;2023-05-02T08:29:22;11.10;99.90
2945;DHT22;1482;51.398;7.128;2023-05-02T08:31:48;11.20;93.80
2945;DHT22;1482;51.398;7.128;2023-05-02T08:34:14;11.20;88.80
2945;DHT22;1482;51.398;7.128;2023-05-02T08:36:40;11.30;80.20
2945;DHT22;1482;51.398;7.128;2023-05-02T08:39:05;11.40;77.20
2945;DHT22;1482;51.398;7.128;2023-05-02T08:41:32;11.40;57.90
2945;DHT22;1482;51.398;7.128;2023-05-02T08:43:58;11.50;54.10
2945;DHT22;1482;51.398;7.128;2023-05-02T08:46:24;11.60;38.30
2945;DHT22;1482;51.398;7.128;2023-05-02T08:48:51;11.80;22.70
2945;DHT22;1482;51.398;7.128;2023-05-02T08:51:18;11.90;16.90
2945;DHT22;1482;51.398;7.128;2023-05-02T08:53:44;11.80;22.00
2945;DHT22;1482;51.398;7.128;2023-05-02T08:56:11;11.50;18.00
2945;DHT22;1482;51.398;7.128;2023-05-02T08:58:38;11.10;34.00
2945;DHT22;1482;51.398;7.128;2023-05-02T09:01:15;11.10;33.90
2945;DHT22;1482;51.398;7.128;2023-05-02T09:03:43;11.00;29.90
2945;DHT22;1482;51.398;7.128;2023-05-02T09:06:19;10.90;29.20
2945;DHT22;1482;51.398;7.128;2023-05-02T09:08:50;10.90;38.20
2945;DHT22;1482;51.398;7.128;2023-05-02T09:11:19;10.70;54.70
2945;DHT22;1482;51.398;7.128;2023-05-02T09:13:50;10.80;94.70
2945;DHT22;1482;51.398;7.128;2023-05-02T09:18:46;10.60;98.70
2945;DHT22;1482;51.398;7.128;2023-05-02T09:21:19;10.60;99.90
2945;DHT22;1482;51.398;7.128;2023-05-02T09:23:51;10.60;99.90
2945;DHT22;1482;51.398;7.128;2023-05-02T09:26:28;10.40;99.90
2945;DHT22;1482;51.398;7.128;2023-05-02T09:28:59;10.40;99.90
2945;DHT22;1482;51.398;7.128;2023-05-02T09:31:30;10.30;99.90
2945;DHT22;1482;51.398;7.128;2023-05-02T09:34:14;10.40;99.90
2945;DHT22;1482;51.398;7.128;2023-05-02T09:36:45;10.30;99.90
2945;DHT22;1482;51.398;7.128;2023-05-02T09:39:12;10.40;99.90
2945;DHT22;1482;51.398;7.128;2023-05-02T09:41:39;10.50;99.90
2945;DHT22;1482;51.398;7.128;2023-05-02T09:44:09;10.50;99.90
2945;DHT22;1482;51.398;7.128;2023-05-02T09:46:42;10.50;99.90
2945;DHT22;1482;51.398;7.128;2023-05-02T09:49:08;10.30;99.90
2945;DHT22;1482;51.398;7.128;2023-05-02T09:51:34;10.50;99.90
2945;DHT22;1482;51.398;7.128;2023-05-02T09:54:00;10.60;99.90
2945;DHT22;1482;51.398;7.128;2023-05-02T09:56:26;10.70;99.90
2945;DHT22;1482;51.398;7.128;2023-05-02T09:58:53;10.90;95.00
2945;DHT22;1482;51.398;7.128;2023-05-02T10:01:35;11.00;61.50
2945;DHT22;1482;51.398;7.128;2023-05-02T10:04:03;11.30;23.60
2945;DHT22;1482;51.398;7.128;2023-05-02T10:06:29;11.50;2.50
2945;DHT22;1482;51.398;7.128;2023-05-02T10:08:57;11.80;1.00
2945;DHT22;1482;51.398;7.128;2023-05-02T10:11:23;12.00;1.00
2945;DHT22;1482;51.398;7.128;2023-05-02T10:13:49;12.30;1.00
2945;DHT22;1482;51.398;7.128;2023-05-02T10:16:21;12.30;1.00
2945;DHT22;1482;51.398;7.128;2023-05-02T10:18:57;12.50;1.00
2945;DHT22;1482;51.398;7.128;2023-05-02T10:21:27;12.80;1.00
2945;DHT22;1482;51.398;7.128;2023-05-02T10:23:53;13.00;1.00
2945;DHT22;1482;51.398;7.128;2023-05-02T10:26:19;13.30;1.00
2945;DHT22;1482;51.398;7.128;2023-05-02T10:28:48;13.50;1.00
2945;DHT22;1482;51.398;7.128;2023-05-02T10:31:14;13.90;1.00
2945;DHT22;1482;51.398;7.128;2023-05-02T10:33:40;14.00;1.00
2945;DHT22;1482;51.398;7.128;2023-05-02T10:36:10;14.20;1.00
2945;DHT22;1482;51.398;7.128;2023-05-02T10:38:39;14.40;1.00
2945;DHT22;1482;51.398;7.128;2023-05-02T10:41:12;14.50;1.00
2945;DHT22;1482;51.398;7.128;2023-05-02T10:43:42;14.30;1.00
2945;DHT22;1482;51.398;7.128;2023-05-02T10:49:11;14.40;1.00
2945;DHT22;1482;51.398;7.128;2023-05-02T10:51:41;14.40;1.00
2945;DHT22;1482;51.398;7.128;2023-05-02T10:59:38;15.50;1.00
2945;DHT22;1482;51.398;7.128;2023-05-02T11:02:50;15.50;1.00
2945;DHT22;1482;51.398;7.128;2023-05-02T11:07:27;16.60;1.00
2945;DHT22;1482;51.398;7.128;2023-05-02T11:10:02;16.90;1.00
2945;DHT22;1482;51.398;7.128;2023-05-02T11:12:46;17.20;1.00
2945;DHT22;1482;51.398;7.128;2023-05-02T11:15:13;17.50;1.00
2945;DHT22;1482;51.398;7.128;2023-05-02T11:17:59;17.60;1.00
2945;DHT22;1482;51.398;7.128;2023-05-02T11:20:26;17.80;1.00
2945;DHT22;1482;51.398;7.128;2023-05-02T11:22:52;17.70;1.00
2945;DHT22;1482;51.398;7.128;2023-05-02T11:25:31;17.40;1.00
2945;DHT22;1482;51.398;7.128;2023-05-02T11:27:57;17.00;1.00
2945;DHT22;1482;51.398;7.128;2023-05-02T11:30:36;16.20;1.00
2945;DHT22;1482;51.398;7.128;2023-05-02T11:35:34;15.50;1.00
2945;DHT22;1482;51.398;7.128;2023-05-02T11:38:08;15.20;1.00
2945;DHT22;1482;51.398;7.128;2023-05-02T11:40:34;14.80;1.00
2945;DHT22;1482;51.398;7.128;2023-05-02T11:43:00;14.70;1.00
2945;DHT22;1482;51.398;7.128;2023-05-02T11:45:36;14.70;1.00
2945;DHT22;1482;51.398;7.128;2023-05-02T11:48:07;14.50;1.00
2945;DHT22;1482;51.398;7.128;2023-05-02T11:50:34;14.40;1.00
2945;DHT22;1482;51.398;7.128;2023-05-02T11:53:13;14.40;1.00
2945;DHT22;1482;51.398;7.128;2023-05-02T11:55:52;14.20;1.00
2945;DHT22;1482;51.398;7.128;2023-05-02T11:58:20;14.10;1.00
2945;DHT22;1482;51.398;7.128;2023-05-02T12:00:47;14.10;1.00
2945;DHT22;1482;51.398;7.128;2023-05-02T12:03:22;14.20;1.00
2945;DHT22;1482;51.398;7.128;2023-05-02T12:05:48;14.60;1.00
2945;DHT22;1482;51.398;7.128;2023-05-02T12:08:21;14.90;1.00
2945;DHT22;1482;51.398;7.128;2023-05-02T12:10:49;15.20;1.00
2945;DHT22;1482;51.398;7.128;2023-05-02T12:13:16;15.30;1.00
2945;DHT22;1482;51.398;7.128;2023-05-02T12:15:41;15.80;1.00
2945;DHT22;1482;51.398;7.128;2023-05-02T12:18:07;16.10;1.00
2945;DHT22;1482;51.398;7.128;2023-05-02T12:20:34;16.40;1.00
2945;DHT22;1482;51.398;7.128;2023-05-02T12:22:59;16.30;1.00
2945;DHT22;1482;51.398;7.128;2023-05-02T12:25:25;16.70;1.00
2945;DHT22;1482;51.398;7.128;2023-05-02T12:28:00;16.90;1.00
2945;DHT22;1482;51.398;7.128;2023-05-02T12:30:28;17.20;1.00
2945;DHT22;1482;51.398;7.128;2023-05-02T12:32:58;17.40;1.00
2945;DHT22;1482;51.398;7.128;2023-05-02T12:35:24;17.50;1.00
2945;DHT22;1482;51.398;7.128;2023-05-02T12:37:51;17.90;1.00
2945;DHT22;1482;51.398;7.128;2023-05-02T12:40:16;18.10;1.00
2945;DHT22;1482;51.398;7.128;2023-05-02T12:42:42;18.10;1.00
2945;DHT22;1482;51.398;7.128;2023-05-02T12:45:17;18.20;1.00
2945;DHT22;1482;51.398;7.128;2023-05-02T12:47:46;18.20;1.00
2945;DHT22;1482;51.398;7.128;2023-05-02T12:50:11;18.00;1.00
2945;DHT22;1482;51.398;7.128;2023-05-02T12:52:46;17.90;1.00
2945;DHT22;1482;51.398;7.128;2023-05-02T12:55:19;17.80;1.00
2945;DHT22;1482;51.398;7.128;2023-05-02T12:57:45;17.90;1.00
2945;DHT22;1482;51.398;7.128;2023-05-02T13:00:11;18.20;1.00
2945;DHT22;1482;51.398;7.128;2023-05-02T13:02:37;18.00;1.00
2945;DHT22;1482;51.398;7.128;2023-05-02T13:05:13;17.60;1.00
2945;DHT22;1482;51.398;7.128;2023-05-02T13:07:39;17.70;1.00
2945;DHT22;1482;51.398;7.128;2023-05-02T13:10:05;17.60;1.00
2945;DHT22;1482;51.398;7.128;2023-05-02T13:12:30;17.40;1.00
2945;DHT22;1482;51.398;7.128;2023-05-02T13:14:56;17.40;1.00
2945;DHT22;1482;51.398;7.128;2023-05-02T13:17:22;17.70;1.00
2945;DHT22;1482;51.398;7.128;2023-05-02T13:19:47;17.80;1.00
2945;DHT22;1482;51.398;7.128;2023-05-02T13:22:13;17.60;1.00
2945;DHT22;1482;51.398;7.128;2023-05-02T13:24:38;17.30;1.00
2945;DHT22;1482;51.398;7.128;2023-05-02T13:27:04;17.20;1.00
2945;DHT22;1482;51.398;7.128;2023-05-02T13:29:30;17.00;1.00
2945;DHT22;1482;51.398;7.128;2023-05-02T13:31:56;17.00;1.00
2945;DHT22;1482;51.398;7.128;2023-05-02T13:34:21;17.00;1.00
2945;DHT22;1482;51.398;7.128;2023-05-02T13:36:47;17.10;1.00
2945;DHT22;1482;51.398;7.128;2023-05-02T13:39:13;17.30;1.00
2945;DHT22;1482;51.398;7.128;2023-05-02T13:41:38;17.30;1.00
2945;DHT22;1482;51.398;7.128;2023-05-02T13:44:04;17.40;1.00
2945;DHT22;1482;51.398;7.128;2023-05-02T13:46:29;17.40;1.00
2945;DHT22;1482;51.398;7.128;2023-05-02T13:49:01;17.40;1.00
2945;DHT22;1482;51.398;7.128;2023-05-02T13:51:28;17.20;1.00
2945;DHT22;1482;51.398;7.128;2023-05-02T13:53:56;16.90;1.00
2945;DHT22;1482;51.398;7.128;2023-05-02T13:56:21;16.80;1.00
2945;DHT22;1482;51.398;7.128;2023-05-02T13:58:47;16.50;1.00
2945;DHT22;1482;51.398;7.128;2023-05-02T14:01:12;16.70;1.00
2945;DHT22;1482;51.398;7.128;2023-05-02T14:03:38;16.80;1.00
2945;DHT22;1482;51.398;7.128;2023-05-02T14:06:03;16.80;1.00
2945;DHT22;1482;51.398;7.128;2023-05-02T14:08:29;17.00;1.00
2945;DHT22;1482;51.398;7.128;2023-05-02T14:10:55;17.10;1.00
2945;DHT22;1482;51.398;7.128;2023-05-02T14:13:20;17.20;1.00
2945;DHT22;1482;51.398;7.128;2023-05-02T14:15:46;17.30;1.00
2945;DHT22;1482;51.398;7.128;2023-05-02T14:18:11;17.20;1.00
2945;DHT22;1482;51.398;7.128;2023-05-02T14:20:37;17.20;1.00
2945;DHT22;1482;51.398;7.128;2023-05-02T14:23:02;17.30;1.00
2945;DHT22;1482;51.398;7.128;2023-05-02T14:25:28;17.50;1.00
2945;DHT22;1482;51.398;7.128;2023-05-02T14:27:53;17.30;1.00
2945;DHT22;1482;51.398;7.128;2023-05-02T14:30:19;16.90;1.00
2945;DHT22;1482;51.398;7.128;2023-05-02T14:32:45;16.80;1.00
2945;DHT22;1482;51.398;7.128;2023-05-02T14:35:11;16.50;1.00
2945;DHT22;1482;51.398;7.128;2023-05-02T14:37:36;16.40;1.00
2945;DHT22;1482;51.398;7.128;2023-05-02T14:40:02;16.20;1.00
2945;DHT22;1482;51.398;7.128;2023-05-02T14:42:27;16.10;1.00
2945;DHT22;1482;51.398;7.128;2023-05-02T14:44:53;16.00;1.00
2945;DHT22;1482;51.398;7.128;2023-05-02T14:47:18;15.80;1.00
2945;DHT22;1482;51.398;7.128;2023-05-02T14:49:44;15.60;1.00
2945;DHT22;1482;51.398;7.128;2023-05-02T14:52:10;15.30;1.00
2945;DHT22;1482;51.398;7.128;2023-05-02T14:54:35;15.20;1.00
2945;DHT22;1482;51.398;7.128;2023-05-02T14:57:01;15.20;1.00
2945;DHT22;1482;51.398;7.128;2023-05-02T14:59:28;15.20;1.00
2945;DHT22;1482;51.398;7.128;2023-05-02T15:01:54;15.10;1.00
2945;DHT22;1482;51.398;7.128;2023-05-02T15:04:19;14.90;1.00
2945;DHT22;1482;51.398;7.128;2023-05-02T15:06:45;14.90;1.00
2945;DHT22;1482;51.398;7.128;2023-05-02T15:09:12;15.00;1.00
2945;DHT22;1482;51.398;7.128;2023-05-02T15:11:38;15.20;1.00
2945;DHT22;1482;51.398;7.128;2023-05-02T15:14:04;15.10;1.00
2945;DHT22;1482;51.398;7.128;2023-05-02T15:16:29;15.20;1.00
2945;DHT22;1482;51.398;7.128;2023-05-02T15:18:55;15.20;1.00
2945;DHT22;1482;51.398;7.128;2023-05-02T15:21:21;15.30;1.00
2945;DHT22;1482;51.398;7.128;2023-05-02T15:23:46;15.30;1.00
2945;DHT22;1482;51.398;7.128;2023-05-02T15:26:12;15.30;1.00
2945;DHT22;1482;51.398;7.128;2023-05-02T15:28:37;15.20;1.00
2945;DHT22;1482;51.398;7.128;2023-05-02T15:31:03;15.30;1.00
2945;DHT22;1482;51.398;7.128;2023-05-02T15:33:29;15.40;1.00
2945;DHT22;1482;51.398;7.128;2023-05-02T15:35:56;15.40;1.00
2945;DHT22;1482;51.398;7.128;2023-05-02T15:38:23;15.20;1.00
2945;DHT22;1482;51.398;7.128;2023-05-02T15:40:56;15.20;1.00
2945;DHT22;1482;51.398;7.128;2023-05-02T15:43:22;15.00;1.00
2945;DHT22;1482;51.398;7.128;2023-05-02T15:45:52;15.10;1.00
2945;DHT22;1482;51.398;7.128;2023-05-02T15:48:19;15.20;1.00
2945;DHT22;1482;51.398;7.128;2023-05-02T15:50:45;15.10;1.00
2945;DHT22;1482;51.398;7.128;2023-05-02T15:53:12;15.10;1.00
2945;DHT22;1482;51.398;7.128;2023-05-02T15:55:39;14.90;1.00
2945;DHT22;1482;51.398;7.128;2023-05-02T15:58:05;14.80;1.00
2945;DHT22;1482;51.398;7.128;2023-05-02T16:00:30;14.90;1.00
2945;DHT22;1482;51.398;7.128;2023-05-02T16:02:56;15.10;1.00
2945;DHT22;1482;51.398;7.128;2023-05-02T16:05:21;15.20;1.00
2945;DHT22;1482;51.398;7.128;2023-05-02T16:07:47;15.20;1.00
2945;DHT22;1482;51.398;7.128;2023-05-02T16:10:13;15.20;1.00
2945;DHT22;1482;51.398;7.128;2023-05-02T16:12:38;15.20;1.00
2945;DHT22;1482;51.398;7.128;2023-05-02T16:15:04;15.10;1.00
2945;DHT22;1482;51.398;7.128;2023-05-02T16:17:30;15.00;1.00
2945;DHT22;1482;51.398;7.128;2023-05-02T16:19:56;14.90;1.00
2945;DHT22;1482;51.398;7.128;2023-05-02T16:22:22;15.00;1.00
2945;DHT22;1482;51.398;7.128;2023-05-02T16:24:48;15.00;1.00
2945;DHT22;1482;51.398;7.128;2023-05-02T16:27:14;14.80;1.00
2945;DHT22;1482;51.398;7.128;2023-05-02T16:29:39;14.80;1.00
2945;DHT22;1482;51.398;7.128;2023-05-02T16:32:05;14.70;1.00
2945;DHT22;1482;51.398;7.128;2023-05-02T16:34:32;14.70;1.00
2945;DHT22;1482;51.398;7.128;2023-05-02T16:36:58;14.70;1.00
2945;DHT22;1482;51.398;7.128;2023-05-02T16:39:23;14.70;1.00
2945;DHT22;1482;51.398;7.128;2023-05-02T16:41:49;14.70;1.00
2945;DHT22;1482;51.398;7.128;2023-05-02T16:44:15;14.60;1.00